Time;durP1;ratioP1;P1;durP2;ratioP2;P2;SDS_P1;SDS_P2;PMS_P1;PMS_P2;Temp;Humidity;BMP_temperature;BMP_pressure;BME280_temperature;BME280_humidity;BME280_pressure;Samples;Min_cycle;Max_cycle;Signal;HPM_P1;HPM_P2
2024/01/02 00:04:54;;;;;;;;;;;;;;;;;;;;;
2024/01/02 00:07:35;;;;;;;14.07;7.97;;;10.20;96.70;;;;;;4850915;29;20153;-71
2024/01/02 00:10:06;;;;;;;14.57;8.73;;;10.20;96.70;;;;;;4874725;29;20094;-71
2024/01/02 00:12:38;;;;;;;19.23;8.60;;;10.20;96.70;;;;;;4929605;29;20051;-72
2024/01/02 00:15:19;;;;;;;13.32;8.75;;;10.20;96.70;;;;;;4911422;29;20059;-71
2024/01/02 00:22:50;;;;;;;16.42;7.93;;;10.20;96.70;;;;;;4884821;29;20055;-71
2024/01/02 00:25:52;;;;;;;11.52;7.18;;;10.20;96.70;;;;;;4888365;29;20113;-71
2024/01/02 00:28:22;;;;;;;17.50;7.78;;;10.20;96.70;;;;;;4888095;29;20086;-71
2024/01/02 00:30:55;;;;;;;12.65;7.40;;;10.20;96.70;;;;;;4920979;29;20527;-71
2024/01/02 00:37:08;;;;;;;13.85;7.63;;;10.20;96.70;;;;;;4921244;29;20062;-72
2024/01/02 00:39:41;;;;;;;11.02;7.50;;;10.20;96.70;;;;;;4929004;29;20066;-71
2024/01/02 00:46:04;;;;;;;;;;;10.20;96.70;;;;;;4903415;29;20079;-71
2024/01/02 00:49:02;;;;;;;13.70;7.68;;;10.10;96.70;;;;;;4928390;29;19934;-71
2024/01/02 00:51:33;;;;;;;16.77;7.75;;;10.00;96.70;;;;;;4926939;29;20109;-72
2024/01/02 00:54:02;;;;;;;11.70;7.63;;;10.10;96.70;;;;;;4926900;29;20069;-71
2024/01/02 00:57:00;;;;;;;12.95;7.88;;;10.00;96.70;;;;;;4928684;29;20063;-71
2024/01/02 00:59:40;;;;;;;13.75;7.47;;;10.00;96.70;;;;;;4919015;29;20436;-71
2024/01/02 01:02:28;;;;;;;18.92;7.85;;;10.00;96.70;;;;;;4927048;29;20159;-71
2024/01/02 01:05:03;;;;;;;8.90;6.78;;;10.00;96.70;;;;;;4912342;29;20150;-71
2024/01/02 01:07:33;;;;;;;11.48;7.22;;;9.90;96.70;;;;;;4910728;29;20075;-71
2024/01/02 01:10:04;;;;;;;14.00;6.90;;;9.80;96.70;;;;;;4926736;29;20070;-72
2024/01/02 01:12:38;;;;;;;13.23;6.80;;;9.80;96.70;;;;;;4920114;29;20064;-71
2024/01/02 01:18:29;;;;;;;12.45;6.45;;;9.90;96.70;;;;;;4907699;29;20059;-71
2024/01/02 01:21:02;;;;;;;16.70;7.35;;;9.90;96.70;;;;;;4909915;29;20066;-71
2024/01/02 01:23:31;;;;;;;11.50;6.63;;;9.90;96.70;;;;;;4928319;29;20056;-71
2024/01/02 01:26:01;;;;;;;12.73;6.97;;;9.90;96.70;;;;;;4926974;29;20062;-72
2024/01/02 01:28:35;;;;;;;12.80;6.50;;;9.90;96.70;;;;;;4910670;29;20073;-72
2024/01/02 01:31:29;;;;;;;9.82;6.32;;;9.90;96.70;;;;;;4920539;29;20115;-71
2024/01/02 01:37:44;;;;;;;10.30;6.28;;;9.90;96.70;;;;;;4910228;29;20477;-72
2024/01/02 01:40:42;;;;;;;20.17;7.15;;;9.80;96.70;;;;;;4927890;29;20135;-71
2024/01/02 01:43:12;;;;;;;12.52;6.25;;;9.80;96.70;;;;;;4910636;29;20059;-71
2024/01/02 01:46:31;;;;;;;;;;;;;;;;;;;;;
2024/01/02 01:49:19;;;;;;;10.07;5.63;;;9.60;96.70;;;;;;4931400;29;20066;-71
2024/01/02 01:51:50;;;;;;;11.20;5.82;;;9.60;96.70;;;;;;4914676;29;20064;-71
2024/01/02 01:54:22;;;;;;;10.43;5.22;;;9.60;96.70;;;;;;4930279;29;20056;-72
2024/01/02 01:57:23;;;;;;;10.63;5.80;;;9.60;96.70;;;;;;4931419;29;20140;-71
2024/01/02 01:59:53;;;;;;;12.02;6.22;;;9.50;96.70;;;;;;4913771;29;20063;-71
2024/01/02 02:02:55;;;;;;;10.93;6.03;;;9.40;96.70;;;;;;4930014;29;20154;-71
2024/01/02 02:05:36;;;;;;;12.60;5.88;;;9.50;96.70;;;;;;4930852;29;20056;-72
2024/01/02 02:08:44;;;;;;;;;;;;;;;;;;;;;
2024/01/02 02:12:17;;;;;;;11.63;5.63;;;9.70;96.70;;;;;;4897630;29;20473;-72
2024/01/02 02:18:38;;;;;;;12.13;5.82;;;9.60;96.70;;;;;;4922783;29;20550;-71
2024/01/02 02:25:39;;;;;;;14.63;7.15;;;9.70;96.70;;;;;;4871852;29;20221;-71
2024/01/02 02:28:13;;;;;;;11.30;7.00;;;9.60;96.70;;;;;;4864921;29;20100;-71
2024/01/02 02:30:52;;;;;;;12.27;7.15;;;9.50;96.70;;;;;;4855988;29;20084;-72
2024/01/02 02:33:34;;;;;;;;;;;;;;;;;;;;;
2024/01/02 02:36:15;;;;;;;15.05;6.38;;;9.60;96.70;;;;;;4871670;29;20067;-71
2024/01/02 02:38:58;;;;;;;12.07;6.40;;;9.60;96.70;;;;;;4871468;29;20061;-72
2024/01/02 02:46:29;;;;;;;11.00;6.95;;;9.70;96.70;;;;;;4839960;29;20583;-71
2024/01/02 02:49:19;;;;;;;11.65;5.88;;;9.70;96.70;;;;;;4835540;29;20106;-71
2024/01/02 02:52:36;;;;;;;9.00;5.18;;;9.70;96.70;;;;;;4827876;29;20493;-71
2024/01/02 02:55:08;;;;;;;10.05;5.72;;;9.70;96.70;;;;;;4833598;29;20065;-71
2024/01/02 02:57:50;;;;;;;8.23;6.00;;;9.70;96.70;;;;;;4833304;29;20093;-71
2024/01/02 03:00:33;;;;;;;;;;;;;;;;;;;;;
2024/01/02 03:03:10;;;;;;;9.68;5.93;;;9.80;96.70;;;;;;4889593;29;20073;-71
2024/01/02 03:06:00;;;;;;;12.75;6.10;;;9.80;96.70;;;;;;4889512;29;20534;-71
2024/01/02 03:08:30;;;;;;;12.18;6.55;;;9.70;96.70;;;;;;4888207;29;20085;-72
2024/01/02 03:11:01;;;;;;;9.60;6.10;;;9.70;96.70;;;;;;4889015;29;20064;-71
2024/01/02 03:13:32;;;;;;;9.07;6.22;;;9.70;96.70;;;;;;4882002;29;20107;-72
2024/01/02 03:21:51;;;;;;;;;;;;;;;;;;;;;
2024/01/02 03:25:53;;;;;;;13.32;5.85;;;9.60;96.70;;;;;;4907119;29;20126;-72
2024/01/02 03:33:02;;;;;;;14.75;6.47;;;9.60;96.70;;;;;;4833719;29;20072;-72
2024/01/02 03:35:52;;;;;;;9.65;5.88;;;9.60;96.70;;;;;;4912654;28;20145;-71
2024/01/02 03:49:37;;;;;;;;;;;;;;;;;;;;;
2024/01/02 03:53:30;;;;;;;11.95;6.00;;;9.60;96.70;;;;;;4917314;29;20522;-71
2024/01/02 03:57:28;;;;;;;11.43;5.40;;;9.50;96.70;;;;;;4824507;29;20084;-72
2024/01/02 04:10:09;;;;;;;7.38;4.50;;;9.60;96.70;;;;;;4865960;29;20049;-71
2024/01/02 04:48:02;;;;;;;;;;;;;;;;;;;;;
2024/01/02 04:51:17;;;;;;;8.23;4.50;;;9.60;96.70;;;;;;4887609;29;20102;-71
2024/01/02 04:54:57;;;;;;;8.65;4.80;;;9.60;96.70;;;;;;4901482;29;20059;-71
2024/01/02 04:58:10;;;;;;;8.07;4.22;;;9.50;96.70;;;;;;4928334;29;20212;-72
2024/01/02 05:15:53;;;;;;;10.77;4.25;;;9.50;96.70;;;;;;4904648;29;20481;-72
2024/01/02 05:18:27;;;;;;;6.82;3.70;;;9.50;96.70;;;;;;4901922;29;20060;-72
2024/01/02 05:21:35;;;;;;;8.35;4.82;;;9.50;96.70;;;;;;4835872;29;20076;-71
2024/01/02 05:24:33;;;;;;;9.77;4.63;;;9.50;96.70;;;;;;4831575;29;20433;-71
2024/01/02 05:27:41;;;;;;;8.68;5.10;;;9.60;96.70;;;;;;4775073;29;20079;-71
2024/01/02 05:30:47;;;;;;;8.32;4.22;;;9.60;96.70;;;;;;4780164;29;20194;-71
2024/01/02 05:33:22;;;;;;;12.80;4.95;;;9.50;96.70;;;;;;4780305;29;20198;-73
2024/01/02 05:35:54;;;;;;;12.38;4.78;;;9.50;96.70;;;;;;4780788;29;20066;-74
2024/01/02 05:38:24;;;;;;;8.52;4.38;;;9.40;96.70;;;;;;4812467;29;20089;-74
2024/01/02 05:40:53;;;;;;;11.52;4.72;;;9.40;96.70;;;;;;4835392;29;20093;-74
2024/01/02 05:43:32;;;;;;;10.65;4.35;;;9.30;96.70;;;;;;4835664;29;20524;-71
2024/01/02 05:51:32;;;;;;;9.73;4.00;;;9.20;96.70;;;;;;4725978;30;20052;-71
2024/01/02 05:56:56;;;;;;;7.20;3.90;;;9.10;96.70;;;;;;4886155;29;20039;-74
2024/01/02 05:59:25;;;;;;;7.97;4.22;;;9.10;96.70;;;;;;4913722;29;20055;-74
2024/01/02 06:01:54;;;;;;;9.68;3.88;;;9.00;96.70;;;;;;4912410;29;20517;-73
2024/01/02 06:04:25;;;;;;;7.18;3.47;;;9.00;96.70;;;;;;4911828;29;20090;-74
2024/01/02 06:06:54;;;;;;;7.55;3.40;;;9.00;96.70;;;;;;4920137;29;20088;-73
2024/01/02 06:09:26;;;;;;;10.00;3.33;;;9.00;96.70;;;;;;4912553;29;20055;-73
2024/01/02 06:11:57;;;;;;;9.00;3.75;;;8.90;96.70;;;;;;4895713;29;20672;-74
2024/01/02 06:14:26;;;;;;;9.15;4.03;;;9.00;96.70;;;;;;4917467;29;20063;-72
2024/01/02 06:25:21;;;;;;;7.97;4.30;;;8.90;96.70;;;;;;4905126;29;20064;-72
2024/01/02 06:27:54;;;;;;;8.63;3.90;;;8.90;96.70;;;;;;4911329;29;20135;-72
2024/01/02 06:30:23;;;;;;;9.45;4.18;;;8.90;96.70;;;;;;4911054;29;20139;-72
2024/01/02 06:32:55;;;;;;;8.88;4.32;;;8.90;96.70;;;;;;4911763;29;20075;-72
2024/01/02 06:35:37;;;;;;;7.78;4.85;;;8.80;96.70;;;;;;4913566;29;20060;-72
2024/01/02 06:38:13;;;;;;;9.30;5.20;;;8.90;96.70;;;;;;4920382;29;20083;-72
2024/01/02 06:40:45;;;;;;;8.43;5.65;;;8.80;96.70;;;;;;4911990;29;20140;-72
2024/01/02 06:43:16;;;;;;;8.60;5.68;;;8.80;96.70;;;;;;4911559;29;20253;-72
2024/01/02 06:45:46;;;;;;;9.45;6.30;;;8.90;96.70;;;;;;4911389;29;20068;-72
2024/01/02 06:48:17;;;;;;;13.07;7.20;;;8.80;96.70;;;;;;4911375;29;20060;-72
2024/01/02 06:50:51;;;;;;;12.73;7.22;;;8.70;96.70;;;;;;4919139;29;20434;-72
2024/01/02 06:53:35;;;;;;;10.38;7.10;;;8.70;96.70;;;;;;4909593;29;20060;-72
2024/01/02 06:56:08;;;;;;;13.60;5.68;;;8.80;96.70;;;;;;4891975;29;20055;-72
2024/01/02 06:58:44;;;;;;;9.70;4.78;;;8.70;96.70;;;;;;4915883;29;20526;-72
2024/01/02 07:01:14;;;;;;;10.00;5.43;;;8.60;96.70;;;;;;4918996;29;20106;-72
2024/01/02 07:03:44;;;;;;;12.85;5.68;;;8.60;96.70;;;;;;4911289;29;20056;-72
2024/01/02 07:06:13;;;;;;;15.05;5.55;;;8.70;96.70;;;;;;4911333;29;20067;-72
2024/01/02 07:08:47;;;;;;;10.00;4.65;;;8.70;96.70;;;;;;4908097;29;20151;-72
2024/01/02 07:11:16;;;;;;;13.30;3.45;;;8.70;96.70;;;;;;4911814;29;20063;-72
2024/01/02 07:13:47;;;;;;;8.20;3.45;;;8.70;96.70;;;;;;4894610;29;20056;-72
2024/01/02 07:16:17;;;;;;;10.13;4.13;;;8.70;96.70;;;;;;4903465;29;20068;-72
2024/01/02 07:19:20;;;;;;;6.18;3.08;;;8.70;96.70;;;;;;4911691;29;20458;-72
2024/01/02 07:21:52;;;;;;;12.10;4.35;;;8.80;96.70;;;;;;4899346;29;20107;-72
2024/01/02 07:24:26;;;;;;;6.20;3.70;;;8.70;96.70;;;;;;4909781;29;20071;-72
2024/01/02 07:26:56;;;;;;;6.72;3.38;;;8.80;96.70;;;;;;4911429;29;20135;-73
2024/01/02 07:29:31;;;;;;;6.65;3.25;;;8.70;96.70;;;;;;4910675;29;20056;-72
2024/01/02 07:32:00;;;;;;;6.55;2.97;;;8.70;96.70;;;;;;4919060;29;20051;-72
2024/01/02 07:35:31;;;;;;;6.13;2.72;;;8.80;96.70;;;;;;4907414;29;20151;-72
2024/01/02 07:38:02;;;;;;;5.25;2.55;;;8.80;96.70;;;;;;4903989;29;20064;-72
2024/01/02 07:40:32;;;;;;;5.70;2.80;;;8.80;96.70;;;;;;4911486;29;20521;-72
2024/01/02 07:43:05;;;;;;;8.15;4.18;;;8.90;96.70;;;;;;4917173;29;20131;-72
2024/01/02 07:45:35;;;;;;;8.65;3.40;;;8.90;96.70;;;;;;4910847;29;20403;-72
2024/01/02 07:48:05;;;;;;;9.15;3.70;;;9.00;96.70;;;;;;4903474;29;20118;-72
2024/01/02 07:50:34;;;;;;;6.07;3.55;;;9.00;96.70;;;;;;4910744;29;20056;-72
2024/01/02 07:53:03;;;;;;;10.25;3.58;;;9.00;96.70;;;;;;4911070;29;20060;-72
2024/01/02 07:55:32;;;;;;;9.65;4.07;;;9.00;96.70;;;;;;4910563;29;20738;-72
2024/01/02 07:58:01;;;;;;;9.77;3.97;;;9.00;96.70;;;;;;4909840;29;20485;-72
2024/01/02 08:00:29;;;;;;;9.02;3.45;;;9.10;96.70;;;;;;4908761;29;20056;-72
2024/01/02 08:03:03;;;;;;;9.82;3.47;;;9.10;96.70;;;;;;4910382;29;20056;-72
2024/01/02 08:05:31;;;;;;;6.65;3.53;;;9.10;96.70;;;;;;4888678;29;20086;-72
2024/01/02 08:08:00;;;;;;;8.23;3.53;;;9.20;96.70;;;;;;4909588;29;20140;-71
2024/01/02 08:10:29;;;;;;;6.22;3.00;;;9.20;96.70;;;;;;4917387;29;20051;-72
2024/01/02 08:12:59;;;;;;;11.50;3.55;;;9.20;96.70;;;;;;4910821;29;20052;-72
2024/01/02 08:15:28;;;;;;;6.32;3.90;;;9.20;96.70;;;;;;4913298;29;20051;-72
2024/01/02 08:18:12;;;;;;;9.02;3.60;;;9.40;96.70;;;;;;4911506;29;20427;-73
2024/01/02 08:20:42;;;;;;;9.02;3.42;;;9.40;96.70;;;;;;4909762;29;20609;-72
2024/01/02 08:23:11;;;;;;;10.85;4.47;;;9.50;96.70;;;;;;4909821;29;20517;-72
2024/01/02 08:25:40;;;;;;;10.48;4.53;;;9.50;96.70;;;;;;4913344;29;20067;-72
2024/01/02 08:28:09;;;;;;;9.25;4.30;;;9.50;96.70;;;;;;4919579;29;20056;-72
2024/01/02 08:30:38;;;;;;;7.43;3.50;;;9.60;96.70;;;;;;4903064;29;20056;-73
2024/01/02 08:33:07;;;;;;;7.65;3.17;;;9.60;96.70;;;;;;4911016;29;20849;-72
2024/01/02 08:35:37;;;;;;;5.93;3.28;;;9.60;96.70;;;;;;4909682;29;20067;-72
2024/01/02 08:38:05;;;;;;;6.88;3.00;;;9.60;96.70;;;;;;4913035;29;20452;-72
2024/01/02 08:40:34;;;;;;;8.65;3.13;;;9.60;96.70;;;;;;4914701;29;20060;-72
2024/01/02 08:43:04;;;;;;;7.38;3.40;;;9.70;96.70;;;;;;4909569;29;20592;-72
2024/01/02 08:45:35;;;;;;;5.10;3.03;;;9.70;96.70;;;;;;4909024;29;20441;-72
2024/01/02 08:48:04;;;;;;;8.80;3.40;;;9.70;96.70;;;;;;4909078;29;20518;-72
2024/01/02 08:50:41;;;;;;;7.90;3.28;;;9.80;96.70;;;;;;4909232;29;20056;-72
2024/01/02 08:53:12;;;;;;;7.50;2.97;;;9.80;96.70;;;;;;4909676;29;20124;-73
2024/01/02 08:55:40;;;;;;;9.07;3.20;;;9.90;96.70;;;;;;4909125;29;20066;-72
2024/01/02 08:58:12;;;;;;;12.13;4.30;;;9.90;96.70;;;;;;4885541;29;20115;-72
2024/01/02 09:00:40;;;;;;;8.75;3.42;;;9.90;96.70;;;;;;4896179;29;20073;-72
2024/01/02 09:03:08;;;;;;;8.18;3.33;;;9.90;96.70;;;;;;4898911;29;20060;-72
2024/01/02 09:05:39;;;;;;;12.52;3.80;;;10.00;96.70;;;;;;4885791;29;20162;-72
2024/01/02 09:08:08;;;;;;;9.02;4.22;;;9.90;96.70;;;;;;4874526;29;20064;-72
2024/01/02 09:10:37;;;;;;;6.75;3.53;;;9.90;96.70;;;;;;4889948;29;20120;-73
2024/01/02 09:13:05;;;;;;;7.00;3.58;;;9.90;96.70;;;;;;4881881;29;20064;-72
2024/01/02 09:15:35;;;;;;;7.57;3.72;;;9.90;96.70;;;;;;4890163;29;20091;-72
2024/01/02 09:18:04;;;;;;;7.75;3.92;;;10.00;96.70;;;;;;4873821;29;20057;-73
2024/01/02 09:20:35;;;;;;;8.48;4.05;;;10.10;96.70;;;;;;4890407;29;20112;-72
2024/01/02 09:23:06;;;;;;;7.70;3.85;;;10.10;96.70;;;;;;4890548;29;20133;-72
2024/01/02 09:25:39;;;;;;;6.45;3.45;;;10.10;96.70;;;;;;4890063;29;20068;-72
2024/01/02 09:28:12;;;;;;;10.13;4.10;;;10.20;96.70;;;;;;4890154;29;20104;-72
2024/01/02 09:30:47;;;;;;;8.93;4.13;;;10.20;96.70;;;;;;4889684;29;20052;-72
2024/01/02 09:33:18;;;;;;;10.20;3.90;;;10.20;96.70;;;;;;4890150;29;20064;-72
2024/01/02 09:35:47;;;;;;;6.82;3.63;;;10.20;96.70;;;;;;4868826;29;20099;-72
2024/01/02 09:38:18;;;;;;;10.40;3.33;;;10.20;96.70;;;;;;4890359;29;20061;-73
2024/01/02 09:41:08;;;;;;;7.50;3.83;;;10.20;96.70;;;;;;4890381;29;20552;-72
2024/01/02 09:43:50;;;;;;;7.93;4.05;;;10.20;96.70;;;;;;4897691;29;20056;-73
2024/01/02 09:46:31;;;;;;;8.27;3.80;;;10.30;96.70;;;;;;4889730;29;20060;-72
2024/01/02 09:49:11;;;;;;;8.68;4.53;;;10.30;96.70;;;;;;4898155;29;20514;-72
2024/01/02 09:51:49;;;;;;;10.07;4.30;;;10.40;96.70;;;;;;4890742;29;20064;-72
2024/01/02 09:54:39;;;;;;;8.93;4.72;;;10.60;96.70;;;;;;4889754;29;20807;-73
2024/01/02 09:57:16;;;;;;;7.45;4.10;;;10.60;96.70;;;;;;4900586;29;20056;-72
2024/01/02 10:00:05;;;;;;;9.90;4.45;;;10.60;96.70;;;;;;4901581;29;20079;-71
2024/01/02 10:02:46;;;;;;;;;;;10.80;96.70;;;;;;4907582;29;20059;-72
2024/01/02 10:05:26;;;;;;;9.25;4.32;;;10.90;96.70;;;;;;4909659;29;20274;-72
2024/01/02 10:08:14;;;;;;;10.75;5.00;;;11.00;96.70;;;;;;4913379;29;20430;-72
2024/01/02 10:10:57;;;;;;;9.77;4.55;;;11.10;96.70;;;;;;4896981;29;20522;-73
2024/01/02 10:13:34;;;;;;;10.48;4.95;;;11.10;96.70;;;;;;4902556;29;20068;-72
2024/01/02 10:16:09;;;;;;;8.85;5.28;;;11.10;96.70;;;;;;4912422;29;20060;-72
2024/01/02 10:18:50;;;;;;;16.25;7.75;;;11.10;96.70;;;;;;4920256;29;20086;-72
2024/01/02 10:21:28;;;;;;;11.75;6.72;;;11.10;96.70;;;;;;4906702;29;20060;-72
2024/01/02 10:24:07;;;;;;;14.05;6.30;;;11.20;96.70;;;;;;4912641;29;20115;-72
2024/01/02 10:26:44;;;;;;;12.15;5.53;;;11.20;96.70;;;;;;4901491;29;20063;-72
2024/01/02 10:29:25;;;;;;;9.73;5.15;;;11.20;96.70;;;;;;4914636;29;20119;-72
2024/01/02 10:32:04;;;;;;;13.98;5.22;;;11.30;96.70;;;;;;4912182;29;20070;-72
2024/01/02 10:34:39;;;;;;;9.05;5.07;;;11.30;96.70;;;;;;4916174;29;20056;-73
2024/01/02 10:37:12;;;;;;;9.00;5.07;;;11.30;96.70;;;;;;4905570;29;20373;-72
2024/01/02 10:39:44;;;;;;;12.02;5.20;;;11.30;96.70;;;;;;4911215;29;20139;-73
2024/01/02 10:42:44;;;;;;;8.43;4.72;;;11.40;96.70;;;;;;4894648;29;20059;-72
2024/01/02 10:45:26;;;;;;;9.98;5.53;;;11.40;96.70;;;;;;4909843;29;20102;-73
2024/01/02 10:48:14;;;;;;;16.88;10.15;;;11.50;96.70;;;;;;4911926;29;20083;-72
2024/01/02 10:50:53;;;;;;;8.88;5.45;;;11.60;96.70;;;;;;4911664;29;20155;-73
2024/01/02 10:53:36;;;;;;;10.90;4.93;;;11.60;96.70;;;;;;4911788;29;20140;-73
2024/01/02 10:56:21;;;;;;;11.15;5.25;;;11.60;96.70;;;;;;4919426;29;20059;-72
2024/01/02 10:59:03;;;;;;;13.05;6.35;;;11.70;96.70;;;;;;4909231;29;20063;-73
2024/01/02 11:01:37;;;;;;;12.43;5.57;;;11.80;96.70;;;;;;4913251;29;20059;-73
2024/01/02 11:04:15;;;;;;;10.45;5.95;;;11.80;96.70;;;;;;4911459;29;20066;-72
2024/01/02 11:06:46;;;;;;;13.45;6.30;;;11.80;96.70;;;;;;4921078;29;20059;-72
2024/01/02 11:09:26;;;;;;;10.60;6.88;;;11.80;96.70;;;;;;4920605;29;20063;-73
2024/01/02 11:11:58;;;;;;;13.73;7.80;;;11.80;96.70;;;;;;4911650;29;20419;-72
2024/01/02 11:14:44;;;;;;;21.55;13.68;;;11.80;96.70;;;;;;4906270;29;20612;-73
2024/01/02 11:17:15;;;;;;;14.13;8.32;;;12.00;96.70;;;;;;4924519;29;20521;-73
2024/01/02 11:19:57;;;;;;;12.27;6.88;;;12.20;96.70;;;;;;4913196;29;20090;-73
2024/01/02 11:22:35;;;;;;;33.22;20.50;;;12.20;96.70;;;;;;4911024;29;20064;-73
2024/01/02 11:25:12;;;;;;;10.75;4.90;;;12.30;96.70;;;;;;4916224;29;20056;-73
2024/01/02 11:27:54;;;;;;;6.63;3.05;;;12.40;96.70;;;;;;4910053;29;20463;-72
2024/01/02 11:30:32;;;;;;;10.00;3.60;;;12.50;96.70;;;;;;4893343;29;20593;-73
2024/01/02 11:33:11;;;;;;;13.75;3.95;;;12.60;96.70;;;;;;4916128;29;20059;-73
2024/01/02 11:35:58;;;;;;;10.05;3.55;;;12.70;96.70;;;;;;4924066;29;20120;-72
2024/01/02 11:38:31;;;;;;;9.10;3.00;;;12.80;96.70;;;;;;4910514;29;20063;-73
2024/01/02 11:41:18;;;;;;;6.50;2.90;;;13.00;96.70;;;;;;4916047;29;20060;-72
2024/01/02 11:43:55;;;;;;;9.90;3.53;;;13.00;96.70;;;;;;4910628;29;20832;-72
2024/01/02 11:46:39;;;;;;;11.30;3.45;;;12.90;96.70;;;;;;4910896;29;20055;-73
2024/01/02 11:49:12;;;;;;;7.70;3.05;;;12.90;96.70;;;;;;4910466;29;20062;-72
2024/01/02 11:51:49;;;;;;;7.78;3.00;;;12.90;96.70;;;;;;4918475;29;20055;-73
2024/01/02 11:54:23;;;;;;;;;;;13.00;96.70;;;;;;4912020;29;20059;-72
2024/01/02 11:56:52;;;;;;;7.13;2.70;;;13.00;96.70;;;;;;4910834;29;20727;-72
2024/01/02 11:59:31;;;;;;;9.20;2.90;;;13.10;96.70;;;;;;4910432;29;20056;-72
2024/01/02 12:02:17;;;;;;;9.43;3.05;;;13.00;96.70;;;;;;4902801;29;20455;-72
2024/01/02 12:05:10;;;;;;;7.50;2.97;;;13.00;96.70;;;;;;4908649;29;20549;-72
2024/01/02 12:07:42;;;;;;;10.77;2.65;;;13.00;96.70;;;;;;4908618;29;20079;-72
2024/01/02 12:10:13;;;;;;;11.43;2.38;;;12.90;96.70;;;;;;4910227;29;20056;-72
2024/01/02 12:12:54;;;;;;;11.05;2.53;;;12.90;96.70;;;;;;4910201;29;20213;-72
2024/01/02 12:15:33;;;;;;;11.52;2.92;;;12.90;96.70;;;;;;4910708;29;20062;-72
2024/01/02 12:18:05;;;;;;;12.35;2.90;;;12.80;96.70;;;;;;4894129;29;20068;-72
2024/01/02 12:20:43;;;;;;;10.68;3.72;;;12.80;96.70;;;;;;4919021;29;20048;-73
2024/01/02 12:23:14;;;;;;;7.15;1.67;;;12.80;96.70;;;;;;4918924;29;20148;-72
2024/01/02 12:25:44;;;;;;;4.88;1.58;;;12.70;96.70;;;;;;4909692;29;20593;-72
2024/01/02 12:28:14;;;;;;;9.77;1.85;;;12.70;96.70;;;;;;4909116;29;20129;-72
2024/01/02 12:30:57;;;;;;;6.07;1.42;;;12.80;96.70;;;;;;4893412;29;20214;-72
2024/01/02 12:33:36;;;;;;;7.25;1.63;;;12.80;96.70;;;;;;4909841;29;20134;-72
2024/01/02 12:36:14;;;;;;;12.27;2.53;;;13.00;96.70;;;;;;4907339;29;20501;-72
2024/01/02 12:38:51;;;;;;;9.40;1.92;;;13.20;96.70;;;;;;4910299;29;20477;-72
2024/01/02 12:41:28;;;;;;;7.97;2.00;;;13.30;96.70;;;;;;4918529;29;20056;-72
2024/01/02 12:44:01;;;;;;;9.88;1.92;;;13.40;96.70;;;;;;4909725;29;20068;-72
2024/01/02 12:47:04;;;;;;;7.15;1.75;;;13.40;96.70;;;;;;4889200;29;20067;-72
2024/01/02 12:49:50;;;;;;;8.73;1.48;;;13.40;96.70;;;;;;4903884;29;20148;-72
2024/01/02 12:52:27;;;;;;;7.88;2.10;;;13.30;96.70;;;;;;4909621;29;20056;-72
2024/01/02 12:54:58;;;;;;;7.47;1.60;;;13.30;96.70;;;;;;4910101;29;20138;-72
2024/01/02 12:57:33;;;;;;;11.52;2.45;;;13.30;96.70;;;;;;4895860;29;20061;-72
2024/01/02 13:00:16;;;;;;;11.88;2.42;;;13.40;96.70;;;;;;4882806;29;20060;-72
2024/01/02 13:03:20;;;;;;;12.07;1.90;;;13.50;96.70;;;;;;4862489;29;20437;-71
2024/01/02 13:05:52;;;;;;;9.63;1.42;;;13.60;96.70;;;;;;4896083;29;20139;-71
2024/01/02 13:08:25;;;;;;;10.32;1.88;;;13.60;96.70;;;;;;4904742;29;20056;-72
2024/01/02 13:11:19;;;;;;;6.95;1.55;;;13.70;96.70;;;;;;4891488;29;20052;-72
2024/01/02 13:13:49;;;;;;;10.68;2.05;;;13.80;96.70;;;;;;4897803;29;20064;-72
2024/01/02 13:16:20;;;;;;;8.65;1.77;;;13.80;96.70;;;;;;4890453;29;20546;-71
2024/01/02 13:18:49;;;;;;;12.25;2.08;;;13.80;96.70;;;;;;4890412;29;20087;-71
2024/01/02 13:21:23;;;;;;;9.98;2.30;;;13.90;96.70;;;;;;4899513;29;20060;-71
2024/01/02 13:25:01;;;;;;;9.25;2.15;;;13.90;96.70;;;;;;4851666;29;20059;-71
2024/01/02 13:27:30;;;;;;;10.48;3.38;;;13.90;96.70;;;;;;4886440;29;20092;-71
2024/01/02 13:30:03;;;;;;;14.48;5.38;;;13.90;96.70;;;;;;4898453;29;20065;-71
2024/01/02 13:32:36;;;;;;;12.52;4.13;;;13.90;96.70;;;;;;4889881;29;20108;-71
2024/01/02 13:35:21;;;;;;;11.48;2.35;;;13.90;96.70;;;;;;4892924;29;20073;-70
2024/01/02 13:38:02;;;;;;;13.98;3.42;;;13.80;96.70;;;;;;4894992;29;20112;-71
2024/01/02 13:40:32;;;;;;;12.80;2.50;;;13.80;96.70;;;;;;4885512;29;20143;-74
2024/01/02 13:43:03;;;;;;;11.43;2.65;;;13.80;96.70;;;;;;4901189;29;20064;-71
2024/01/02 13:45:34;;;;;;;8.45;1.85;;;13.80;96.70;;;;;;4882381;29;20071;-71
2024/01/02 13:48:12;;;;;;;12.93;2.35;;;13.80;96.70;;;;;;4897096;29;20167;-71
2024/01/02 13:50:44;;;;;;;9.57;2.63;;;13.90;96.70;;;;;;4910446;29;20064;-71
2024/01/02 13:54:04;;;;;;;11.20;2.45;;;13.90;96.70;;;;;;4884103;29;20064;-71
2024/01/02 13:57:05;;;;;;;12.68;2.65;;;14.00;96.70;;;;;;4892077;29;20107;-70
2024/01/02 13:59:37;;;;;;;11.48;2.53;;;14.00;96.70;;;;;;4888613;29;20061;-74
2024/01/02 14:02:14;;;;;;;8.02;1.40;;;14.00;96.70;;;;;;4894126;29;20589;-73
2024/01/02 14:04:48;;;;;;;6.78;1.38;;;14.10;96.70;;;;;;4892436;29;20060;-72
2024/01/02 14:07:28;;;;;;;8.90;2.00;;;14.10;96.70;;;;;;4893774;29;20411;-70
2024/01/02 14:10:26;;;;;;;7.63;1.70;;;14.10;96.70;;;;;;4893595;29;20071;-71
2024/01/02 14:12:58;;;;;;;7.85;1.63;;;14.10;96.70;;;;;;4898005;29;20843;-71
2024/01/02 14:15:37;;;;;;;9.55;1.88;;;14.10;96.70;;;;;;4893933;29;20061;-74
2024/01/02 14:18:12;;;;;;;9.30;1.90;;;14.10;96.70;;;;;;4886123;29;20613;-74
2024/01/02 14:20:54;;;;;;;12.93;2.65;;;14.10;96.70;;;;;;4893470;29;20060;-73
2024/01/02 14:23:34;;;;;;;9.13;1.73;;;14.00;96.70;;;;;;4893597;29;20139;-73
2024/01/02 14:26:16;;;;;;;6.03;2.03;;;13.90;96.70;;;;;;4886030;29;20120;-73
2024/01/02 14:29:06;;;;;;;11.50;4.57;;;13.90;96.70;;;;;;4893270;29;20105;-71
2024/01/02 14:31:51;;;;;;;9.20;3.35;;;13.90;96.70;;;;;;4891978;29;20076;-72
2024/01/02 14:34:37;;;;;;;9.05;2.30;;;13.80;96.70;;;;;;4893178;29;20091;-70
2024/01/02 14:40:51;;;;;;;7.80;1.92;;;13.70;96.70;;;;;;4873874;29;20075;-71
2024/01/02 14:43:39;;;;;;;5.50;1.70;;;13.70;96.70;;;;;;4898411;29;20064;-72
2024/01/02 14:46:25;;;;;;;8.88;2.50;;;13.60;96.70;;;;;;4894609;29;20087;-71
2024/01/02 14:49:13;;;;;;;10.45;3.20;;;13.50;96.70;;;;;;4892549;29;20071;-71
2024/01/02 14:51:59;;;;;;;15.18;3.38;;;13.50;96.70;;;;;;4891287;29;20048;-70
2024/01/02 14:54:48;;;;;;;9.50;1.92;;;13.40;96.70;;;;;;4892932;29;20066;-71
2024/01/02 14:57:27;;;;;;;7.95;2.30;;;13.50;96.70;;;;;;4892700;29;20582;-71
2024/01/02 15:00:53;;;;;;;9.20;2.22;;;13.50;96.70;;;;;;4891449;29;20823;-71
2024/01/02 15:03:45;;;;;;;12.07;2.30;;;13.50;96.70;;;;;;4901337;29;20095;-70
2024/01/02 15:06:19;;;;;;;9.82;2.33;;;13.60;96.70;;;;;;4892648;29;20056;-71
2024/01/02 15:12:22;;;;;;;12.95;3.00;;;13.60;96.70;;;;;;4869791;29;20080;-71
2024/01/02 15:15:04;;;;;;;9.63;2.05;;;13.60;96.70;;;;;;4892210;29;20108;-71
2024/01/02 15:18:23;;;;;;;7.80;2.25;;;13.60;96.70;;;;;;4876582;29;20059;-71
2024/01/02 15:21:38;;;;;;;10.23;1.67;;;13.50;96.70;;;;;;4869222;29;20087;-71
2024/01/02 15:25:03;;;;;;;4.72;1.85;;;13.50;96.70;;;;;;4859768;29;20068;-72
2024/01/02 15:27:37;;;;;;;8.80;1.80;;;13.50;96.70;;;;;;4890672;29;20593;-71
2024/01/02 15:30:46;;;;;;;11.25;2.40;;;13.40;96.70;;;;;;4891623;29;20117;-72
2024/01/02 15:37:48;;;;;;;8.38;1.70;;;13.30;96.70;;;;;;4857883;29;20140;-71
2024/01/02 15:40:32;;;;;;;7.68;2.28;;;13.30;96.70;;;;;;4888413;29;20068;-71
2024/01/02 15:44:10;;;;;;;6.82;1.80;;;13.30;96.70;;;;;;4899763;29;20133;-71
2024/01/02 15:46:53;;;;;;;9.10;2.28;;;13.30;96.70;;;;;;4895456;29;20084;-70
2024/01/02 15:50:21;;;;;;;;;;;;;;;;;;;;;
2024/01/02 15:53:11;;;;;;;8.57;1.85;;;13.30;96.70;;;;;;4850484;29;20118;-70
2024/01/02 15:56:21;;;;;;;10.57;2.03;;;13.30;96.70;;;;;;4839477;29;20930;-70
2024/01/02 15:59:07;;;;;;;9.05;2.13;;;13.30;96.70;;;;;;4897878;29;20138;-74
2024/01/02 16:01:41;;;;;;;10.30;2.33;;;13.30;96.70;;;;;;4907844;29;20163;-75
2024/01/02 16:04:29;;;;;;;7.35;1.50;;;13.30;96.70;;;;;;4909383;29;20052;-75
2024/01/02 16:11:17;;;;;;;11.15;2.72;;;13.30;96.70;;;;;;4907562;29;20052;-76
2024/01/02 16:14:19;;;;;;;8.68;1.67;;;13.30;96.70;;;;;;4910724;29;20078;-76
2024/01/02 16:17:21;;;;;;;9.82;2.60;;;13.30;96.70;;;;;;4907859;29;20056;-73
2024/01/02 16:20:10;;;;;;;7.72;1.60;;;13.30;96.70;;;;;;4905161;29;20548;-75
2024/01/02 16:22:59;;;;;;;9.73;1.90;;;13.30;96.70;;;;;;4909079;29;20195;-73
2024/01/02 16:25:50;;;;;;;8.02;1.42;;;13.30;96.70;;;;;;4905207;29;20622;-75
2024/01/02 16:28:41;;;;;;;6.55;1.75;;;13.30;96.70;;;;;;4907296;29;20071;-73
2024/01/02 16:31:23;;;;;;;6.88;1.92;;;13.40;96.70;;;;;;4902616;29;20745;-75
2024/01/02 16:34:17;;;;;;;7.43;2.03;;;13.40;96.70;;;;;;4909561;29;20059;-73
2024/01/02 16:37:06;;;;;;;7.93;1.60;;;13.40;96.70;;;;;;4900241;29;20063;-74
2024/01/02 16:39:39;;;;;;;13.80;2.67;;;13.50;96.70;;;;;;4909077;29;20111;-76